Time;durP1;ratioP1;P1;durP2;ratioP2;P2;SDS_P1;SDS_P2;PMS_P1;PMS_P2;Temp;Humidity;BMP_temperature;BMP_pressure;BME280_temperature;BME280_humidity;BME280_pressure;Samples;Min_cycle;Max_cycle;Signal;HPM_P1;HPM_P2
2024/02/18 00:01:35;;;;;;;20.77;11.40;;;16.60;99.90;;;;;;5058697;28;20090;-80
2024/02/18 00:04:01;;;;;;;17.27;10.27;;;16.60;99.90;;;;;;5067196;28;20036;-79
2024/02/18 00:06:27;;;;;;;16.07;10.27;;;16.70;99.90;;;;;;5063996;28;20021;-78
2024/02/18 00:08:53;;;;;;;21.77;11.50;;;16.60;99.90;;;;;;5059309;28;20382;-79
2024/02/18 00:11:19;;;;;;;19.77;10.65;;;16.60;99.90;;;;;;5070426;28;20028;-76
2024/02/18 00:13:45;;;;;;;18.33;10.63;;;16.60;99.90;;;;;;5057965;28;20040;-77
2024/02/18 00:16:11;;;;;;;16.80;10.38;;;16.60;99.90;;;;;;5069952;28;20059;-76
2024/02/18 00:18:37;;;;;;;18.30;10.07;;;16.60;99.90;;;;;;5071335;28;20036;-78
2024/02/18 00:21:03;;;;;;;20.63;10.53;;;16.60;99.90;;;;;;5058020;28;20035;-78
2024/02/18 00:23:29;;;;;;;16.25;10.00;;;16.60;99.90;;;;;;5064253;28;20029;-78
2024/02/18 00:25:55;;;;;;;16.07;9.67;;;16.60;99.90;;;;;;5057748;28;20044;-77
2024/02/18 00:28:22;;;;;;;20.27;10.52;;;16.60;99.90;;;;;;5066656;28;20032;-77
2024/02/18 00:30:50;;;;;;;13.57;8.88;;;16.60;99.90;;;;;;5061459;28;20041;-77
2024/02/18 00:33:17;;;;;;;15.10;9.73;;;16.60;99.90;;;;;;5064723;28;20070;-76
2024/02/18 00:35:42;;;;;;;16.08;9.15;;;16.60;99.90;;;;;;5058008;28;20257;-79
2024/02/18 00:38:08;;;;;;;15.52;9.18;;;16.60;99.90;;;;;;5052266;28;20651;-78
2024/02/18 00:40:34;;;;;;;15.30;9.10;;;16.60;99.90;;;;;;5059616;28;20484;-77
2024/02/18 00:43:00;;;;;;;15.70;9.50;;;16.60;99.90;;;;;;5066328;28;20157;-78
2024/02/18 00:45:26;;;;;;;15.63;8.50;;;16.50;99.90;;;;;;5064881;28;20043;-76
2024/02/18 00:47:51;;;;;;;14.43;8.83;;;16.50;99.90;;;;;;5065790;28;20029;-78
2024/02/18 00:50:17;;;;;;;14.17;8.80;;;16.50;99.90;;;;;;5056642;28;20028;-78
2024/02/18 00:52:43;;;;;;;14.17;9.20;;;16.50;99.90;;;;;;5057729;28;20040;-78
2024/02/18 00:55:09;;;;;;;14.20;8.27;;;16.50;99.90;;;;;;5060657;28;20433;-76
2024/02/18 00:57:35;;;;;;;11.83;8.10;;;16.50;99.90;;;;;;5060981;28;20029;-76
2024/02/18 01:00:01;;;;;;;13.95;8.30;;;16.50;99.90;;;;;;5054585;28;20032;-77
2024/02/18 01:02:29;;;;;;;12.63;8.07;;;16.50;99.90;;;;;;5062865;28;20098;-78
2024/02/18 01:04:59;;;;;;;11.68;7.20;;;16.50;99.90;;;;;;5052825;28;20108;-77
2024/02/18 01:07:25;;;;;;;12.70;7.72;;;16.50;99.90;;;;;;5063463;28;20090;-77
2024/02/18 01:09:51;;;;;;;11.98;7.53;;;16.50;99.90;;;;;;5059608;28;20025;-77
2024/02/18 01:12:17;;;;;;;12.03;7.57;;;16.50;99.90;;;;;;5063147;28;20043;-78
2024/02/18 01:14:46;;;;;;;11.45;7.57;;;16.50;99.90;;;;;;5070021;28;20122;-77
2024/02/18 01:17:12;;;;;;;13.80;7.63;;;16.50;99.90;;;;;;5063294;28;20038;-77
2024/02/18 01:19:37;;;;;;;14.60;8.23;;;16.50;99.90;;;;;;5063887;28;20031;-78
2024/02/18 01:22:04;;;;;;;11.83;7.00;;;16.40;99.90;;;;;;5066440;28;20037;-79
2024/02/18 01:24:29;;;;;;;13.40;7.18;;;16.40;99.90;;;;;;5071071;28;20028;-77
2024/02/18 01:26:55;;;;;;;11.93;6.77;;;16.50;99.90;;;;;;5072402;28;20032;-77
2024/02/18 01:29:22;;;;;;;13.10;7.17;;;16.40;99.90;;;;;;5063517;28;20040;-78
2024/02/18 01:31:48;;;;;;;9.90;6.88;;;16.50;99.90;;;;;;5066037;28;20293;-79
2024/02/18 01:34:14;;;;;;;11.32;6.90;;;16.40;99.90;;;;;;5065597;28;20049;-77
2024/02/18 01:36:40;;;;;;;11.93;7.03;;;16.40;99.90;;;;;;5068379;28;20036;-79
2024/02/18 01:39:07;;;;;;;12.13;6.87;;;16.40;99.90;;;;;;5071856;28;20059;-80
2024/02/18 01:41:33;;;;;;;;;;;16.40;99.90;;;;;;5073729;28;20342;-78
2024/02/18 01:43:59;;;;;;;9.07;5.57;;;16.40;99.90;;;;;;5065589;28;19927;-80
2024/02/18 01:46:25;;;;;;;12.03;6.43;;;16.40;99.90;;;;;;5069338;28;20051;-78
2024/02/18 01:48:51;;;;;;;9.50;6.13;;;16.40;99.90;;;;;;5072003;28;20025;-80
2024/02/18 01:51:18;;;;;;;10.15;5.38;;;16.40;99.90;;;;;;5065157;28;20090;-77
2024/02/18 01:53:44;;;;;;;9.15;5.38;;;16.40;99.90;;;;;;5066848;28;20123;-80
2024/02/18 01:56:13;;;;;;;9.38;6.07;;;16.40;99.90;;;;;;5061146;28;20037;-78
2024/02/18 01:58:38;;;;;;;8.27;5.80;;;16.40;99.90;;;;;;5058062;28;20036;-79
2024/02/18 02:01:05;;;;;;;9.27;5.07;;;16.40;99.90;;;;;;5067305;28;20041;-79
2024/02/18 02:03:32;;;;;;;9.32;5.28;;;16.40;99.90;;;;;;5058955;28;20155;-78
2024/02/18 02:06:00;;;;;;;7.32;5.32;;;16.40;99.90;;;;;;5073400;28;20029;-80
2024/02/18 02:08:26;;;;;;;10.27;6.03;;;16.40;99.90;;;;;;5072394;28;20079;-78
2024/02/18 02:10:52;;;;;;;11.02;5.68;;;16.30;99.90;;;;;;5072406;28;20036;-80
2024/02/18 02:13:18;;;;;;;10.70;5.20;;;16.30;99.90;;;;;;5070014;28;20112;-77
2024/02/18 02:15:45;;;;;;;5.97;4.33;;;16.40;99.90;;;;;;5071787;28;20147;-75
2024/02/18 02:18:11;;;;;;;7.80;4.90;;;16.30;99.90;;;;;;5071917;28;20549;-75
2024/02/18 02:20:37;;;;;;;10.17;5.17;;;16.30;99.90;;;;;;5070515;28;20120;-76
2024/02/18 02:23:04;;;;;;;10.10;5.03;;;16.30;99.90;;;;;;5071992;28;20020;-78
2024/02/18 02:25:29;;;;;;;9.27;4.78;;;16.30;99.90;;;;;;5071693;28;20048;-79
2024/02/18 02:28:12;;;;;;;9.10;5.10;;;16.30;99.90;;;;;;5070037;28;20067;-77
2024/02/18 02:30:38;;;;;;;6.63;4.13;;;16.30;99.90;;;;;;5069905;28;20032;-78
2024/02/18 02:33:03;;;;;;;7.57;4.40;;;16.30;99.90;;;;;;5071340;28;20068;-77
2024/02/18 02:35:29;;;;;;;8.57;4.60;;;16.30;99.90;;;;;;5070952;28;20112;-79
2024/02/18 02:37:59;;;;;;;7.20;4.33;;;16.30;99.90;;;;;;5066427;28;20348;-78
2024/02/18 02:40:25;;;;;;;7.78;4.22;;;16.30;99.90;;;;;;5071077;28;20076;-79
2024/02/18 02:42:52;;;;;;;8.88;4.75;;;16.30;99.90;;;;;;5064852;28;20494;-79
2024/02/18 02:45:18;;;;;;;7.20;4.15;;;16.30;99.90;;;;;;5065819;28;20107;-79
2024/02/18 02:47:43;;;;;;;6.10;3.97;;;16.30;99.90;;;;;;5066714;28;20036;-79
2024/02/18 02:50:09;;;;;;;7.40;4.20;;;16.30;99.90;;;;;;5061167;28;20033;-78
2024/02/18 02:52:38;;;;;;;10.17;4.80;;;16.30;99.90;;;;;;5067199;28;20086;-79
2024/02/18 02:55:05;;;;;;;6.38;4.47;;;16.30;99.90;;;;;;5069289;28;20043;-79
2024/02/18 02:57:31;;;;;;;7.10;4.25;;;16.20;99.90;;;;;;5067189;28;20020;-78
2024/02/18 02:59:57;;;;;;;5.63;3.73;;;16.20;99.90;;;;;;5069872;28;20355;-78
2024/02/18 03:02:22;;;;;;;5.27;3.67;;;16.20;99.90;;;;;;5065842;28;20039;-79
2024/02/18 03:04:48;;;;;;;5.20;3.57;;;16.20;99.90;;;;;;5065146;28;20059;-78
2024/02/18 03:07:14;;;;;;;5.83;3.53;;;16.20;99.90;;;;;;5068479;28;20062;-78
2024/02/18 03:09:39;;;;;;;7.03;3.93;;;16.20;99.90;;;;;;5069831;28;20633;-78
2024/02/18 03:12:05;;;;;;;7.67;3.70;;;16.20;99.90;;;;;;5058789;28;20033;-79
2024/02/18 03:14:31;;;;;;;8.50;3.73;;;16.20;99.90;;;;;;5061706;28;20113;-78
2024/02/18 03:16:58;;;;;;;6.97;3.85;;;16.20;99.90;;;;;;5066120;28;20024;-78
2024/02/18 03:19:24;;;;;;;7.65;3.50;;;16.20;99.90;;;;;;5063289;28;20486;-78
2024/02/18 03:21:50;;;;;;;8.07;3.67;;;16.20;99.90;;;;;;5066240;28;20051;-78
2024/02/18 03:24:15;;;;;;;6.17;3.63;;;16.10;99.90;;;;;;5064359;28;20051;-78
2024/02/18 03:26:41;;;;;;;7.23;3.33;;;16.10;99.90;;;;;;5065679;28;20025;-79
2024/02/18 03:29:09;;;;;;;5.40;3.53;;;16.10;99.90;;;;;;5066106;28;20029;-78
2024/02/18 03:31:35;;;;;;;4.60;3.30;;;16.10;99.90;;;;;;5063573;28;20032;-79
2024/02/18 03:34:01;;;;;;;5.37;3.43;;;16.20;99.90;;;;;;5058687;28;20045;-79
2024/02/18 03:36:27;;;;;;;5.80;3.38;;;16.10;99.90;;;;;;5065046;28;20025;-80
2024/02/18 03:38:53;;;;;;;5.53;3.40;;;16.10;99.90;;;;;;5064171;28;20433;-78
2024/02/18 03:41:19;;;;;;;10.30;3.90;;;16.10;99.90;;;;;;5066891;28;20070;-78
2024/02/18 03:43:45;;;;;;;6.57;2.90;;;16.10;99.90;;;;;;5065939;28;20040;-79
2024/02/18 03:46:10;;;;;;;5.80;2.77;;;16.10;99.90;;;;;;5065996;28;20517;-79
2024/02/18 03:48:36;;;;;;;4.47;3.20;;;16.10;99.90;;;;;;5065416;28;20054;-78
2024/02/18 03:51:02;;;;;;;3.63;2.75;;;16.10;99.90;;;;;;5064202;28;20070;-79
2024/02/18 03:53:28;;;;;;;4.67;3.27;;;16.10;99.90;;;;;;5061375;28;20128;-79
2024/02/18 03:55:53;;;;;;;5.73;2.90;;;16.10;99.90;;;;;;5060942;28;20480;-78
2024/02/18 03:58:19;;;;;;;8.03;3.50;;;16.10;99.90;;;;;;5055677;28;20051;-79
2024/02/18 04:00:46;;;;;;;4.80;2.77;;;16.00;99.90;;;;;;5059133;28;20032;-79
2024/02/18 04:03:13;;;;;;;5.22;2.80;;;16.10;99.90;;;;;;5056734;28;20102;-79
2024/02/18 04:05:40;;;;;;;3.58;2.53;;;16.10;99.90;;;;;;5065764;28;20028;-79
2024/02/18 04:08:05;;;;;;;;;;;16.00;99.90;;;;;;5069290;28;20055;-79
2024/02/18 04:10:31;;;;;;;5.93;2.53;;;16.00;99.90;;;;;;5066513;28;19978;-79
2024/02/18 04:12:57;;;;;;;5.33;2.73;;;16.00;99.90;;;;;;5069246;28;20122;-78
2024/02/18 04:15:22;;;;;;;5.60;2.70;;;16.00;99.90;;;;;;5066486;28;20605;-79
2024/02/18 04:17:49;;;;;;;4.43;2.43;;;16.00;99.90;;;;;;5067301;28;20028;-78
2024/02/18 04:20:15;;;;;;;5.82;2.20;;;16.00;99.90;;;;;;5061459;28;20386;-78
2024/02/18 04:22:42;;;;;;;4.70;2.70;;;16.00;99.90;;;;;;5065006;28;20041;-78
2024/02/18 04:25:08;;;;;;;3.15;2.20;;;16.00;99.90;;;;;;5067047;28;20367;-79
2024/02/18 04:27:34;;;;;;;6.83;2.63;;;16.00;99.90;;;;;;5067393;28;20033;-78
2024/02/18 04:30:00;;;;;;;6.20;2.90;;;16.00;99.90;;;;;;5058322;28;20397;-78
2024/02/18 04:32:26;;;;;;;4.13;2.50;;;16.00;99.90;;;;;;5067263;28;20033;-79
2024/02/18 04:34:51;;;;;;;5.50;2.70;;;16.00;99.90;;;;;;5063798;28;20036;-79
2024/02/18 04:37:18;;;;;;;3.70;2.50;;;16.00;99.90;;;;;;5065657;28;20036;-80
2024/02/18 04:39:43;;;;;;;4.25;2.20;;;16.00;99.90;;;;;;5059845;28;20124;-78
2024/02/18 04:42:09;;;;;;;3.80;2.37;;;15.90;99.90;;;;;;5060398;28;20045;-78
2024/02/18 04:44:35;;;;;;;5.77;2.10;;;15.90;99.90;;;;;;5062796;28;20098;-79
2024/02/18 04:47:00;;;;;;;4.23;2.33;;;15.90;99.90;;;;;;5060995;28;20028;-79
2024/02/18 04:49:26;;;;;;;3.10;1.80;;;15.90;99.90;;;;;;5055627;28;20546;-79
2024/02/18 04:51:52;;;;;;;3.23;2.33;;;15.90;99.90;;;;;;5061499;28;20086;-78
2024/02/18 04:54:18;;;;;;;3.57;2.07;;;15.90;99.90;;;;;;5063081;28;20032;-79
2024/02/18 04:56:43;;;;;;;3.50;2.37;;;15.90;99.90;;;;;;5056175;28;20051;-78
2024/02/18 04:59:09;;;;;;;4.93;2.50;;;15.90;99.90;;;;;;5061503;28;20041;-78
2024/02/18 05:01:36;;;;;;;5.23;2.50;;;15.90;99.90;;;;;;5061119;28;20478;-79
2024/02/18 05:04:02;;;;;;;;;;;15.90;99.90;;;;;;5066352;28;20024;-79
2024/02/18 05:06:27;;;;;;;4.10;2.40;;;15.90;99.90;;;;;;5065176;28;19909;-77
2024/02/18 05:08:53;;;;;;;3.00;1.83;;;15.90;99.90;;;;;;5065003;28;20123;-79
2024/02/18 05:11:19;;;;;;;3.33;2.07;;;15.90;99.90;;;;;;5065679;28;20061;-78
2024/02/18 05:13:44;;;;;;;3.30;1.97;;;15.90;99.90;;;;;;5060811;28;20042;-78
2024/02/18 05:16:10;;;;;;;2.70;1.90;;;15.80;99.90;;;;;;5065087;28;20077;-78
2024/02/18 05:18:36;;;;;;;3.87;2.03;;;15.80;99.90;;;;;;5068441;28;20531;-79
2024/02/18 05:21:04;;;;;;;3.20;1.80;;;15.90;99.90;;;;;;5063529;28;20021;-80
2024/02/18 05:23:31;;;;;;;2.78;1.63;;;15.80;99.90;;;;;;5066159;28;20029;-79
2024/02/18 05:25:56;;;;;;;2.67;1.77;;;15.90;99.90;;;;;;5066851;28;20040;-78
2024/02/18 05:28:22;;;;;;;3.03;1.73;;;15.80;99.90;;;;;;5064907;28;20394;-78
2024/02/18 05:30:48;;;;;;;4.70;1.80;;;15.80;99.90;;;;;;5060585;28;20041;-79
2024/02/18 05:33:14;;;;;;;3.43;1.77;;;15.80;99.90;;;;;;5061045;28;20742;-78
2024/02/18 05:35:40;;;;;;;3.25;1.73;;;15.80;99.90;;;;;;5062729;28;20024;-78
2024/02/18 05:38:06;;;;;;;2.07;1.77;;;15.80;99.90;;;;;;5058157;28;20047;-77
2024/02/18 05:40:31;;;;;;;2.20;1.57;;;15.80;99.90;;;;;;5064603;28;20082;-78
2024/02/18 05:42:57;;;;;;;4.50;2.20;;;15.80;99.90;;;;;;5066802;28;20043;-78
2024/02/18 05:45:30;;;;;;;2.63;1.70;;;15.80;99.90;;;;;;5066290;28;20029;-80
2024/02/18 05:47:56;;;;;;;2.33;1.75;;;15.80;99.90;;;;;;5060761;28;20107;-80
2024/02/18 05:50:22;;;;;;;2.28;1.75;;;15.80;99.90;;;;;;5064756;28;20431;-78
2024/02/18 05:52:48;;;;;;;3.50;1.80;;;15.80;99.90;;;;;;5067123;28;20051;-78
2024/02/18 05:55:14;;;;;;;4.40;2.00;;;15.70;99.90;;;;;;5061177;28;20028;-78
2024/02/18 05:57:39;;;;;;;4.07;1.50;;;15.80;99.90;;;;;;5055757;28;20033;-77
2024/02/18 06:00:06;;;;;;;2.10;1.60;;;15.70;99.90;;;;;;5061778;28;20070;-78
2024/02/18 06:02:31;;;;;;;3.42;1.58;;;15.70;99.90;;;;;;5065053;28;20127;-78
2024/02/18 06:04:57;;;;;;;3.87;1.70;;;15.70;99.90;;;;;;5065524;28;20107;-79
2024/02/18 06:07:23;;;;;;;4.35;2.10;;;15.70;99.90;;;;;;5064623;28;20474;-80
2024/02/18 06:09:49;;;;;;;1.97;1.37;;;15.70;99.90;;;;;;5072047;28;20090;-79
2024/02/18 06:12:14;;;;;;;2.77;1.33;;;15.70;99.90;;;;;;5062431;28;20036;-79
2024/02/18 06:14:40;;;;;;;2.97;1.40;;;15.70;99.90;;;;;;5067697;28;20033;-78
2024/02/18 06:17:06;;;;;;;3.27;1.50;;;15.70;99.90;;;;;;5069895;28;20029;-79
2024/02/18 06:19:32;;;;;;;2.10;1.40;;;15.70;99.90;;;;;;5072331;28;20071;-79
2024/02/18 06:21:57;;;;;;;7.57;1.40;;;15.60;99.90;;;;;;5071080;28;20036;-77
2024/02/18 06:24:27;;;;;;;2.87;1.60;;;15.70;99.90;;;;;;5070865;28;20517;-77
2024/02/18 06:26:54;;;;;;;2.75;1.30;;;15.70;99.90;;;;;;5068059;28;20075;-78
2024/02/18 06:29:19;;;;;;;1.52;1.05;;;15.60;99.90;;;;;;5066932;28;20036;-79
2024/02/18 06:31:45;;;;;;;3.03;1.80;;;15.60;99.90;;;;;;5071331;28;20036;-79
2024/02/18 06:34:11;;;;;;;2.13;1.10;;;15.60;99.90;;;;;;5068585;28;20103;-78
2024/02/18 06:36:38;;;;;;;3.03;1.30;;;15.60;99.90;;;;;;5067071;28;20055;-79
2024/02/18 06:39:04;;;;;;;3.00;1.50;;;15.60;99.90;;;;;;5070694;28;20588;-78
2024/02/18 06:41:31;;;;;;;2.60;1.60;;;15.60;99.90;;;;;;5070389;28;20063;-78
2024/02/18 06:43:57;;;;;;;4.30;1.33;;;15.60;99.90;;;;;;5069640;28;20286;-78
2024/02/18 06:46:23;;;;;;;3.63;1.70;;;15.60;99.90;;;;;;5069121;28;20212;-79
2024/02/18 06:48:51;;;;;;;2.37;1.37;;;15.60;99.90;;;;;;5070571;28;20458;-79
2024/02/18 06:51:17;;;;;;;3.38;1.55;;;15.60;99.90;;;;;;5058556;28;20060;-79
2024/02/18 06:53:43;;;;;;;3.80;1.40;;;15.60;99.90;;;;;;5062832;28;20060;-78
2024/02/18 06:56:09;;;;;;;2.60;1.20;;;15.60;99.90;;;;;;5061562;28;20071;-79
2024/02/18 06:58:35;;;;;;;3.38;1.40;;;15.50;99.90;;;;;;5068526;28;20086;-78
2024/02/18 07:01:01;;;;;;;3.00;1.10;;;15.60;99.90;;;;;;5070520;28;20032;-79
2024/02/18 07:03:26;;;;;;;1.73;1.37;;;15.60;99.90;;;;;;5067452;28;20036;-80
2024/02/18 07:05:52;;;;;;;3.37;1.40;;;15.50;99.90;;;;;;5065079;28;20508;-79
2024/02/18 07:08:18;;;;;;;2.37;1.20;;;15.50;99.90;;;;;;5058509;28;20032;-78
2024/02/18 07:10:44;;;;;;;1.53;1.20;;;15.50;99.90;;;;;;5071486;28;20036;-80
2024/02/18 07:13:09;;;;;;;3.80;1.20;;;15.50;99.90;;;;;;5071792;28;20727;-79
2024/02/18 07:15:35;;;;;;;3.50;1.33;;;15.50;99.90;;;;;;5068570;28;20073;-79
2024/02/18 07:18:01;;;;;;;1.37;1.10;;;15.50;99.90;;;;;;5057248;28;20474;-79
2024/02/18 07:20:27;;;;;;;2.35;1.23;;;15.50;99.90;;;;;;5063788;28;20359;-79
2024/02/18 07:22:53;;;;;;;3.17;1.27;;;15.50;99.90;;;;;;5070144;28;20043;-80
2024/02/18 07:25:19;;;;;;;1.77;1.10;;;15.50;99.90;;;;;;5059782;28;20040;-78
2024/02/18 07:27:45;;;;;;;2.28;1.00;;;15.50;99.90;;;;;;5063979;28;20288;-78
2024/02/18 07:30:11;;;;;;;2.50;1.20;;;15.50;99.90;;;;;;5061574;28;20106;-78
2024/02/18 07:32:37;;;;;;;2.88;1.20;;;15.50;99.90;;;;;;5068539;28;20028;-79
2024/02/18 07:35:04;;;;;;;3.77;1.47;;;15.60;99.90;;;;;;5067628;28;20047;-78
2024/02/18 07:37:29;;;;;;;5.55;1.30;;;15.70;99.90;;;;;;5064278;28;20029;-79
2024/02/18 07:39:55;;;;;;;3.37;1.20;;;15.70;99.90;;;;;;5066687;28;20362;-78
2024/02/18 07:42:21;;;;;;;2.13;1.33;;;15.70;99.90;;;;;;5068633;28;20024;-78
2024/02/18 07:44:47;;;;;;;3.87;1.17;;;15.70;99.90;;;;;;5068613;28;20028;-79
2024/02/18 07:47:13;;;;;;;5.37;1.20;;;15.70;99.90;;;;;;5068619;28;20032;-79
2024/02/18 07:49:38;;;;;;;5.32;1.77;;;15.70;99.90;;;;;;5069148;28;20035;-79
2024/02/18 07:52:05;;;;;;;4.60;1.50;;;15.70;99.90;;;;;;5068570;28;20381;-78
2024/02/18 07:54:31;;;;;;;10.65;1.92;;;15.80;99.90;;;;;;5069834;28;20099;-77
2024/02/18 07:56:57;;;;;;;10.70;2.30;;;15.70;99.90;;;;;;5068408;28;20115;-79
2024/02/18 07:59:23;;;;;;;31.40;2.70;;;15.70;99.90;;;;;;5068123;28;20135;-77
2024/02/18 08:01:49;;;;;;;10.70;2.47;;;15.70;99.90;;;;;;5068437;28;20115;-79
2024/02/18 08:04:15;;;;;;;21.07;2.57;;;15.70;99.90;;;;;;5067025;28;20039;-78
2024/02/18 08:06:40;;;;;;;8.73;1.60;;;15.70;99.90;;;;;;5068472;28;20028;-78
2024/02/18 08:09:07;;;;;;;17.53;1.60;;;15.80;99.90;;;;;;5064802;28;20689;-79
2024/02/18 08:11:33;;;;;;;12.43;2.25;;;15.80;99.90;;;;;;5066178;28;20051;-78
2024/02/18 08:13:59;;;;;;;3.93;1.77;;;15.70;99.90;;;;;;5069123;28;20036;-78
2024/02/18 08:16:28;;;;;;;8.17;2.33;;;15.80;99.90;;;;;;5067893;28;20493;-77
2024/02/18 08:18:57;;;;;;;13.82;2.05;;;15.80;99.90;;;;;;5066024;28;20086;-78
2024/02/18 08:21:23;;;;;;;10.82;5.25;;;15.80;99.90;;;;;;5068273;28;20036;-79
2024/02/18 08:23:50;;;;;;;26.75;19.98;;;15.90;99.90;;;;;;5068095;28;20032;-79
2024/02/18 08:26:23;;;;;;;7.80;5.88;;;15.90;99.90;;;;;;5068794;28;20051;-81
2024/02/18 08:28:50;;;;;;;13.98;5.75;;;15.90;99.90;;;;;;5066141;28;20043;-78
2024/02/18 08:31:17;;;;;;;11.27;5.10;;;16.20;99.90;;;;;;5068614;28;20032;-80
2024/02/18 08:33:46;;;;;;;12.75;5.68;;;16.10;99.90;;;;;;5067713;28;20036;-79
2024/02/18 08:36:12;;;;;;;16.02;5.22;;;16.10;99.90;;;;;;5056480;28;20028;-77
2024/02/18 08:38:39;;;;;;;14.53;5.23;;;16.20;99.90;;;;;;5068145;28;20037;-79
2024/02/18 08:41:05;;;;;;;46.67;24.02;;;16.10;99.90;;;;;;5070357;28;20265;-79
2024/02/18 08:43:33;;;;;;;62.30;29.35;;;16.20;99.90;;;;;;5066870;28;20115;-80
2024/02/18 08:45:59;;;;;;;21.00;10.05;;;16.20;99.90;;;;;;5061555;28;20036;-77
2024/02/18 08:48:25;;;;;;;30.00;10.38;;;16.20;99.90;;;;;;5070484;28;20024;-80
2024/02/18 08:50:51;;;;;;;21.10;9.33;;;16.30;99.90;;;;;;5069228;28;20492;-79
2024/02/18 08:53:17;;;;;;;22.57;9.23;;;16.40;99.90;;;;;;5070747;28;20663;-76
2024/02/18 08:55:43;;;;;;;16.23;8.33;;;16.40;99.90;;;;;;5068183;28;20087;-79
2024/02/18 08:58:09;;;;;;;24.35;8.30;;;16.40;99.90;;;;;;5069253;28;20401;-79
2024/02/18 09:00:34;;;;;;;19.53;7.17;;;16.40;99.90;;;;;;5064961;28;20032;-79
2024/02/18 09:03:01;;;;;;;17.37;6.80;;;16.40;99.90;;;;;;5068885;28;20040;-82
2024/02/18 09:05:27;;;;;;;17.00;7.35;;;16.40;99.90;;;;;;5060918;28;20029;-82
2024/02/18 09:07:53;;;;;;;26.88;9.43;;;16.30;99.90;;;;;;5071708;28;20111;-83
2024/02/18 09:10:19;;;;;;;26.93;7.43;;;16.40;99.90;;;;;;5064888;28;20116;-83
2024/02/18 09:12:44;;;;;;;24.63;7.87;;;16.30;99.90;;;;;;5064009;28;20090;-83
2024/02/18 09:15:11;;;;;;;20.47;6.80;;;16.30;99.90;;;;;;5058082;28;20025;-82
2024/02/18 09:17:37;;;;;;;19.45;6.30;;;16.30;99.90;;;;;;5063419;28;20399;-81
2024/02/18 09:20:06;;;;;;;15.87;6.47;;;16.30;99.90;;;;;;5063453;28;20033;-80
2024/02/18 09:22:32;;;;;;;17.50;6.20;;;16.30;99.90;;;;;;5071410;28;20029;-82
2024/02/18 09:24:58;;;;;;;17.27;5.50;;;16.30;99.90;;;;;;5065416;28;20025;-81
2024/02/18 09:27:23;;;;;;;14.20;5.50;;;16.40;99.90;;;;;;5071464;28;20371;-80
2024/02/18 09:29:51;;;;;;;65.53;29.17;;;16.40;99.90;;;;;;5066631;28;20052;-83
2024/02/18 09:32:17;;;;;;;27.67;12.38;;;16.30;99.90;;;;;;5069755;28;20037;-83
2024/02/18 09:34:42;;;;;;;15.83;8.00;;;16.30;99.90;;;;;;5071345;28;20485;-82
2024/02/18 09:37:08;;;;;;;36.37;10.60;;;16.30;99.90;;;;;;5071624;28;20025;-82
2024/02/18 09:39:34;;;;;;;16.83;8.87;;;16.30;99.90;;;;;;5071384;28;20079;-83
2024/02/18 09:42:03;;;;;;;24.00;9.37;;;16.40;99.90;;;;;;5074709;28;20028;-81
2024/02/18 09:44:33;;;;;;;15.57;6.43;;;16.40;99.90;;;;;;5074912;28;20028;-81
2024/02/18 09:47:01;;;;;;;15.85;6.40;;;16.40;99.90;;;;;;5064271;28;20364;-83
2024/02/18 09:49:29;;;;;;;13.23;5.93;;;16.40;99.90;;;;;;5074133;28;20503;-82
2024/02/18 09:51:55;;;;;;;18.00;6.72;;;16.40;99.90;;;;;;5074273;28;20032;-82
2024/02/18 09:54:23;;;;;;;12.40;5.47;;;16.40;99.90;;;;;;5071637;28;20043;-81
2024/02/18 09:56:49;;;;;;;13.93;5.70;;;16.40;99.90;;;;;;5075224;28;20127;-82
2024/02/18 09:59:15;;;;;;;14.32;7.10;;;16.40;99.90;;;;;;5075531;28;20120;-83
2024/02/18 10:01:41;;;;;;;9.18;4.78;;;16.40;99.90;;;;;;5074070;28;20036;-80
2024/02/18 10:04:08;;;;;;;11.77;6.50;;;16.50;99.90;;;;;;5071570;28;20032;-80
2024/02/18 10:06:34;;;;;;;;;;;16.50;99.90;;;;;;5073215;28;20078;-84
2024/02/18 10:09:00;;;;;;;10.40;4.90;;;16.50;99.90;;;;;;5074542;28;19963;-80
2024/02/18 10:11:26;;;;;;;10.63;4.63;;;16.60;99.90;;;;;;5074096;28;20040;-82
2024/02/18 10:13:58;;;;;;;13.55;5.30;;;16.60;99.90;;;;;;5073509;28;20119;-82
2024/02/18 10:16:24;;;;;;;20.90;14.45;;;16.60;99.90;;;;;;5074502;28;20031;-81
2024/02/18 10:18:50;;;;;;;10.30;5.90;;;16.50;99.90;;;;;;5074284;28;20021;-80
2024/02/18 10:21:17;;;;;;;12.70;6.23;;;16.50;99.90;;;;;;5074155;28;20082;-81
2024/02/18 10:23:43;;;;;;;9.52;6.35;;;16.50;99.90;;;;;;5074358;28;20028;-81
2024/02/18 10:26:11;;;;;;;11.80;6.07;;;16.60;99.90;;;;;;5073225;28;20025;-82
2024/02/18 10:28:40;;;;;;;15.52;5.55;;;16.60;99.90;;;;;;5074655;28;20162;-83
2024/02/18 10:31:07;;;;;;;12.23;6.28;;;16.50;99.90;;;;;;5071606;28;20029;-82
2024/02/18 10:33:37;;;;;;;12.93;5.63;;;16.50;99.90;;;;;;5069637;28;20040;-81
2024/02/18 10:36:07;;;;;;;9.65;5.57;;;16.60;99.90;;;;;;5071851;28;20024;-81
2024/02/18 10:38:47;;;;;;;11.48;5.85;;;16.60;99.90;;;;;;5066456;28;20029;-85
2024/02/18 10:41:16;;;;;;;15.23;6.43;;;16.70;99.90;;;;;;5060552;28;20036;-83
2024/02/18 10:43:56;;;;;;;8.50;5.45;;;16.70;99.90;;;;;;5074469;28;20359;-83
2024/02/18 10:46:24;;;;;;;13.90;5.75;;;16.70;99.90;;;;;;5060874;28;20115;-82
2024/02/18 10:49:08;;;;;;;8.70;5.70;;;16.70;99.90;;;;;;5072065;28;20026;-81
2024/02/18 10:51:39;;;;;;;9.88;5.95;;;16.80;99.90;;;;;;5072778;28;20386;-85
2024/02/18 10:54:23;;;;;;;16.75;7.15;;;16.80;99.90;;;;;;5090158;28;20432;-80
2024/02/18 10:56:50;;;;;;;15.90;6.88;;;16.80;99.90;;;;;;5073482;28;20024;-83
2024/02/18 10:59:23;;;;;;;;;;;16.80;99.90;;;;;;5074360;28;20036;-82
2024/02/18 11:01:55;;;;;;;18.02;7.22;;;16.80;99.90;;;;;;5072952;28;20002;-82
2024/02/18 11:04:22;;;;;;;18.80;7.15;;;16.90;99.90;;;;;;5073788;28;20063;-85
2024/02/18 11:06:48;;;;;;;;;;;16.90;99.90;;;;;;5063841;28;20052;-84
2024/02/18 11:09:17;;;;;;;13.32;7.18;;;16.90;99.90;;;;;;5067524;28;19919;-84
2024/02/18 11:14:58;;;;;;;20.05;8.77;;;16.90;99.90;;;;;;5069191;28;20069;-82
2024/02/18 11:17:36;;;;;;;20.77;8.80;;;16.90;99.90;;;;;;5064706;28;20039;-83
2024/02/18 11:20:57;;;;;;;15.13;8.32;;;16.90;99.90;;;;;;5069359;28;20125;-83
2024/02/18 11:23:29;;;;;;;13.38;7.00;;;16.90;99.90;;;;;;5064537;28;20616;-82
2024/02/18 11:25:58;;;;;;;14.02;6.65;;;16.90;99.90;;;;;;5054678;28;20127;-83
2024/02/18 11:31:29;;;;;;;15.18;6.70;;;16.90;99.90;;;;;;5064519;28;20094;-82
2024/02/18 11:33:56;;;;;;;13.30;6.57;;;16.90;99.90;;;;;;5054238;28;20040;-83
2024/02/18 11:36:24;;;;;;;11.77;6.47;;;16.90;99.90;;;;;;5049538;28;20390;-81
2024/02/18 11:38:56;;;;;;;17.40;5.47;;;16.90;99.90;;;;;;5053811;28;20082;-81
2024/02/18 11:41:36;;;;;;;10.77;5.25;;;16.90;99.90;;;;;;5054020;28;20426;-82
2024/02/18 11:44:12;;;;;;;36.28;17.98;;;16.90;99.90;;;;;;5043064;28;20028;-80
2024/02/18 11:46:43;;;;;;;16.33;8.50;;;16.90;99.90;;;;;;5048150;28;20025;-80
2024/02/18 11:49:10;;;;;;;15.82;7.85;;;16.90;99.90;;;;;;5041865;28;20084;-79
2024/02/18 11:51:37;;;;;;;18.05;7.15;;;16.90;99.90;;;;;;5048397;28;20034;-79
2024/02/18 11:54:05;;;;;;;22.95;7.43;;;16.90;99.90;;;;;;5069266;28;20044;-80
2024/02/18 11:56:31;;;;;;;13.63;6.47;;;16.90;99.90;;;;;;5053214;28;20035;-81
2024/02/18 11:58:57;;;;;;;16.47;5.60;;;16.90;99.90;;;;;;5071182;28;20025;-80
2024/02/18 12:01:26;;;;;;;21.40;6.13;;;16.90;99.90;;;;;;5053314;28;20039;-80
2024/02/18 12:03:54;;;;;;;14.50;5.78;;;16.90;99.90;;;;;;5053111;28;20083;-78
2024/02/18 12:06:20;;;;;;;15.40;5.80;;;16.90;99.90;;;;;;5052649;28;20037;-80
2024/02/18 12:08:47;;;;;;;64.37;26.97;;;16.90;99.90;;;;;;5053052;28;20470;-81
2024/02/18 12:11:14;;;;;;;28.50;10.07;;;16.90;99.90;;;;;;5050133;28;20119;-78
2024/02/18 12:13:40;;;;;;;24.65;9.02;;;16.90;99.90;;;;;;5060760;28;20506;-79
2024/02/18 12:16:06;;;;;;;15.77;7.73;;;16.90;99.90;;;;;;5068448;28;20089;-79
2024/02/18 12:18:32;;;;;;;16.52;7.95;;;16.90;99.90;;;;;;5067676;28;20111;-79
2024/02/18 12:20:58;;;;;;;17.50;7.18;;;16.90;99.90;;;;;;5046561;28;20599;-80
2024/02/18 12:23:25;;;;;;;14.57;7.10;;;16.90;99.90;;;;;;5051310;28;20029;-78
2024/02/18 12:25:51;;;;;;;;;;;16.90;99.90;;;;;;5052674;28;20033;-79
2024/02/18 12:28:18;;;;;;;15.65;5.68;;;16.90;99.90;;;;;;5069609;28;20272;-81
2024/02/18 12:30:47;;;;;;;15.15;5.43;;;16.90;99.90;;;;;;5067735;28;20123;-79
2024/02/18 12:33:14;;;;;;;14.65;4.88;;;16.90;99.90;;;;;;5066280;28;20034;-79
2024/02/18 12:35:41;;;;;;;22.60;8.10;;;16.90;99.90;;;;;;5066416;28;20043;-78
2024/02/18 12:38:07;;;;;;;;;;;16.90;99.90;;;;;;5067182;28;20557;-78
2024/02/18 12:40:33;;;;;;;;;;;16.90;99.90;;;;;;5067520;28;19943;-76
2024/02/18 12:45:36;;;;;;;35.00;13.02;;;16.80;99.90;;;;;;5639421;22;20115;-71
2024/02/18 12:48:05;;;;;;;39.17;12.13;;;16.80;99.90;;;;;;5028222;28;20436;-73
2024/02/18 12:50:30;;;;;;;34.53;12.85;;;16.80;99.90;;;;;;5024815;28;20075;-72